sensor_id;sensor_type;location;lat;lon;timestamp;temperature;humidity
67249;SHT31;63247;54.300;18.592;2023-05-10T00:01:23;8.02;68.69
67249;SHT31;63247;54.300;18.592;2023-05-10T00:03:48;8.09;68.43
67249;SHT31;63247;54.300;18.592;2023-05-10T00:06:13;8.12;68.43
67249;SHT31;63247;54.300;18.592;2023-05-10T00:08:39;8.09;68.53
67249;SHT31;63247;54.300;18.592;2023-05-10T00:11:04;8.16;68.35
67249;SHT31;63247;54.300;18.592;2023-05-10T00:13:31;8.22;68.20
67249;SHT31;63247;54.300;18.592;2023-05-10T00:15:57;8.16;68.28
67249;SHT31;63247;54.300;18.592;2023-05-10T00:18:22;8.17;68.26
67249;SHT31;63247;54.300;18.592;2023-05-10T00:20:48;8.20;68.19
67249;SHT31;63247;54.300;18.592;2023-05-10T00:23:14;8.14;68.56
67249;SHT31;63247;54.300;18.592;2023-05-10T00:25:39;7.93;68.87
67249;SHT31;63247;54.300;18.592;2023-05-10T00:28:05;7.99;68.91
67249;SHT31;63247;54.300;18.592;2023-05-10T00:30:30;8.14;68.50
67249;SHT31;63247;54.300;18.592;2023-05-10T00:32:56;8.27;68.11
67249;SHT31;63247;54.300;18.592;2023-05-10T00:35:21;8.20;68.33
67249;SHT31;63247;54.300;18.592;2023-05-10T00:37:47;8.09;68.80
67249;SHT31;63247;54.300;18.592;2023-05-10T00:40:12;7.99;68.97
67249;SHT31;63247;54.300;18.592;2023-05-10T00:42:38;7.96;69.27
67249;SHT31;63247;54.300;18.592;2023-05-10T00:45:04;7.96;69.12
67249;SHT31;63247;54.300;18.592;2023-05-10T00:47:29;8.00;69.09
67249;SHT31;63247;54.300;18.592;2023-05-10T00:49:55;8.02;69.22
67249;SHT31;63247;54.300;18.592;2023-05-10T00:52:21;8.02;69.16
67249;SHT31;63247;54.300;18.592;2023-05-10T00:54:50;7.99;69.20
67249;SHT31;63247;54.300;18.592;2023-05-10T00:57:15;7.78;69.97
67249;SHT31;63247;54.300;18.592;2023-05-10T00:59:41;7.61;70.26
67249;SHT31;63247;54.300;18.592;2023-05-10T01:02:06;7.46;70.66
67249;SHT31;63247;54.300;18.592;2023-05-10T01:04:32;7.43;70.92
67249;SHT31;63247;54.300;18.592;2023-05-10T01:06:58;7.48;70.80
67249;SHT31;63247;54.300;18.592;2023-05-10T01:09:23;7.67;70.64
67249;SHT31;63247;54.300;18.592;2023-05-10T01:11:51;7.68;70.43
67249;SHT31;63247;54.300;18.592;2023-05-10T01:14:19;7.58;70.56
67249;SHT31;63247;54.300;18.592;2023-05-10T01:16:45;7.72;70.36
67249;SHT31;63247;54.300;18.592;2023-05-10T01:19:19;7.57;70.56
67249;SHT31;63247;54.300;18.592;2023-05-10T01:44:55;7.02;73.10
67249;SHT31;63247;54.300;18.592;2023-05-10T01:50:01;7.04;73.25
67249;SHT31;63247;54.300;18.592;2023-05-10T01:52:32;6.93;73.70
67249;SHT31;63247;54.300;18.592;2023-05-10T01:55:04;6.83;74.33
67249;SHT31;63247;54.300;18.592;2023-05-10T01:57:37;6.75;74.74
67249;SHT31;63247;54.300;18.592;2023-05-10T02:00:06;6.62;75.11
67249;SHT31;63247;54.300;18.592;2023-05-10T02:02:35;6.67;75.22
67249;SHT31;63247;54.300;18.592;2023-05-10T02:05:04;6.51;75.47
67249;SHT31;63247;54.300;18.592;2023-05-10T02:07:31;6.49;75.70
67249;SHT31;63247;54.300;18.592;2023-05-10T02:09:58;6.42;75.82
67249;SHT31;63247;54.300;18.592;2023-05-10T02:12:25;6.40;75.93
67249;SHT31;63247;54.300;18.592;2023-05-10T02:14:53;6.38;76.02
67249;SHT31;63247;54.300;18.592;2023-05-10T02:17:19;6.37;76.29
67249;SHT31;63247;54.300;18.592;2023-05-10T02:19:46;6.35;76.01
67249;SHT31;63247;54.300;18.592;2023-05-10T02:22:13;6.40;76.27
67249;SHT31;63247;54.300;18.592;2023-05-10T02:24:39;6.21;76.72
67249;SHT31;63247;54.300;18.592;2023-05-10T02:27:06;6.04;77.07
67249;SHT31;63247;54.300;18.592;2023-05-10T02:29:32;6.10;77.16
67249;SHT31;63247;54.300;18.592;2023-05-10T02:31:59;6.07;77.13
67249;SHT31;63247;54.300;18.592;2023-05-10T02:34:28;5.96;77.66
67249;SHT31;63247;54.300;18.592;2023-05-10T02:36:55;5.77;78.18
67249;SHT31;63247;54.300;18.592;2023-05-10T02:39:21;5.86;78.17
67249;SHT31;63247;54.300;18.592;2023-05-10T02:41:48;5.76;78.34
67249;SHT31;63247;54.300;18.592;2023-05-10T02:44:15;5.72;78.34
67249;SHT31;63247;54.300;18.592;2023-05-10T02:46:42;5.60;78.70
67249;SHT31;63247;54.300;18.592;2023-05-10T02:49:08;5.51;79.00
67249;SHT31;63247;54.300;18.592;2023-05-10T02:51:36;5.62;78.62
67249;SHT31;63247;54.300;18.592;2023-05-10T02:54:07;5.96;78.17
67249;SHT31;63247;54.300;18.592;2023-05-10T02:56:36;5.92;78.16
67249;SHT31;63247;54.300;18.592;2023-05-10T02:59:01;6.17;77.04
67249;SHT31;63247;54.300;18.592;2023-05-10T03:01:27;6.03;77.29
67249;SHT31;63247;54.300;18.592;2023-05-10T03:03:53;6.28;76.88
67249;SHT31;63247;54.300;18.592;2023-05-10T03:06:18;6.41;76.33
67249;SHT31;63247;54.300;18.592;2023-05-10T03:08:45;6.48;76.09
67249;SHT31;63247;54.300;18.592;2023-05-10T03:13:56;6.56;75.91
67249;SHT31;63247;54.300;18.592;2023-05-10T03:16:42;6.88;74.76
67249;SHT31;63247;54.300;18.592;2023-05-10T03:19:24;7.03;74.48
67249;SHT31;63247;54.300;18.592;2023-05-10T03:21:52;7.16;74.08
67249;SHT31;63247;54.300;18.592;2023-05-10T03:24:21;7.31;73.66
67249;SHT31;63247;54.300;18.592;2023-05-10T03:26:48;7.50;73.15
67249;SHT31;63247;54.300;18.592;2023-05-10T03:29:15;7.51;72.97
67249;SHT31;63247;54.300;18.592;2023-05-10T03:31:41;7.74;72.38
67249;SHT31;63247;54.300;18.592;2023-05-10T03:34:06;7.82;72.11
67249;SHT31;63247;54.300;18.592;2023-05-10T03:36:32;8.02;71.82
67249;SHT31;63247;54.300;18.592;2023-05-10T03:38:57;8.16;71.44
67249;SHT31;63247;54.300;18.592;2023-05-10T03:41:23;8.06;71.28
67249;SHT31;63247;54.300;18.592;2023-05-10T03:43:48;8.19;71.36
67249;SHT31;63247;54.300;18.592;2023-05-10T03:46:14;8.65;70.23
67249;SHT31;63247;54.300;18.592;2023-05-10T03:48:39;8.69;69.69
67249;SHT31;63247;54.300;18.592;2023-05-10T03:51:05;8.81;69.48
67249;SHT31;63247;54.300;18.592;2023-05-10T03:53:30;8.82;69.04
67249;SHT31;63247;54.300;18.592;2023-05-10T03:55:56;8.82;69.28
67249;SHT31;63247;54.300;18.592;2023-05-10T03:58:21;9.18;68.44
67249;SHT31;63247;54.300;18.592;2023-05-10T04:00:47;8.95;68.67
67249;SHT31;63247;54.300;18.592;2023-05-10T04:03:13;9.23;68.19
67249;SHT31;63247;54.300;18.592;2023-05-10T04:05:38;9.54;67.46
67249;SHT31;63247;54.300;18.592;2023-05-10T04:08:04;9.60;67.57
67249;SHT31;63247;54.300;18.592;2023-05-10T04:10:29;9.71;67.30
67249;SHT31;63247;54.300;18.592;2023-05-10T04:12:55;9.99;66.25
67249;SHT31;63247;54.300;18.592;2023-05-10T04:15:20;10.38;65.61
67249;SHT31;63247;54.300;18.592;2023-05-10T04:17:46;10.66;65.18
67249;SHT31;63247;54.300;18.592;2023-05-10T04:20:11;11.14;64.60
67249;SHT31;63247;54.300;18.592;2023-05-10T04:22:37;10.83;63.91
67249;SHT31;63247;54.300;18.592;2023-05-10T04:25:03;11.17;63.42
67249;SHT31;63247;54.300;18.592;2023-05-10T04:27:29;11.67;62.55
67249;SHT31;63247;54.300;18.592;2023-05-10T04:29:55;11.52;62.26
67249;SHT31;63247;54.300;18.592;2023-05-10T04:32:20;12.45;60.84
67249;SHT31;63247;54.300;18.592;2023-05-10T04:34:46;11.97;61.22
67249;SHT31;63247;54.300;18.592;2023-05-10T04:37:11;12.24;60.01
67249;SHT31;63247;54.300;18.592;2023-05-10T04:39:37;11.72;61.32
67249;SHT31;63247;54.300;18.592;2023-05-10T04:42:02;12.24;61.75
67249;SHT31;63247;54.300;18.592;2023-05-10T04:44:28;12.95;59.49
67249;SHT31;63247;54.300;18.592;2023-05-10T04:46:54;12.68;59.20
67249;SHT31;63247;54.300;18.592;2023-05-10T04:49:20;12.69;59.30
67249;SHT31;63247;54.300;18.592;2023-05-10T04:51:45;13.19;58.59
67249;SHT31;63247;54.300;18.592;2023-05-10T04:54:11;12.44;59.85
67249;SHT31;63247;54.300;18.592;2023-05-10T04:56:36;13.04;58.38
67249;SHT31;63247;54.300;18.592;2023-05-10T04:59:02;13.51;57.65
67249;SHT31;63247;54.300;18.592;2023-05-10T05:01:27;13.95;57.59
67249;SHT31;63247;54.300;18.592;2023-05-10T05:03:53;14.27;57.09
67249;SHT31;63247;54.300;18.592;2023-05-10T05:06:18;14.87;54.72
67249;SHT31;63247;54.300;18.592;2023-05-10T05:08:44;14.13;55.98
67249;SHT31;63247;54.300;18.592;2023-05-10T05:11:09;13.58;56.54
67249;SHT31;63247;54.300;18.592;2023-05-10T05:13:34;14.47;55.80
67249;SHT31;63247;54.300;18.592;2023-05-10T05:16:02;13.58;56.67
67249;SHT31;63247;54.300;18.592;2023-05-10T05:18:27;14.34;55.92
67249;SHT31;63247;54.300;18.592;2023-05-10T05:20:53;14.09;55.92
67249;SHT31;63247;54.300;18.592;2023-05-10T05:23:18;14.27;54.51
67249;SHT31;63247;54.300;18.592;2023-05-10T05:25:46;15.64;52.70
67249;SHT31;63247;54.300;18.592;2023-05-10T05:28:11;14.08;55.71
67249;SHT31;63247;54.300;18.592;2023-05-10T05:30:37;15.29;54.84
67249;SHT31;63247;54.300;18.592;2023-05-10T05:33:03;15.69;53.25
67249;SHT31;63247;54.300;18.592;2023-05-10T05:35:28;15.91;52.65
67249;SHT31;63247;54.300;18.592;2023-05-10T05:37:53;16.55;52.26
67249;SHT31;63247;54.300;18.592;2023-05-10T05:40:19;15.62;52.40
67249;SHT31;63247;54.300;18.592;2023-05-10T05:42:45;15.87;52.47
67249;SHT31;63247;54.300;18.592;2023-05-10T05:45:11;16.41;51.65
67249;SHT31;63247;54.300;18.592;2023-05-10T05:47:38;16.48;50.89
67249;SHT31;63247;54.300;18.592;2023-05-10T05:50:04;16.53;51.59
67249;SHT31;63247;54.300;18.592;2023-05-10T05:52:30;16.38;51.23
67249;SHT31;63247;54.300;18.592;2023-05-10T05:54:55;17.55;50.75
67249;SHT31;63247;54.300;18.592;2023-05-10T05:57:21;16.67;50.76
67249;SHT31;63247;54.300;18.592;2023-05-10T05:59:46;18.68;49.41
67249;SHT31;63247;54.300;18.592;2023-05-10T06:02:12;18.06;48.99
67249;SHT31;63247;54.300;18.592;2023-05-10T06:04:37;16.10;52.35
67249;SHT31;63247;54.300;18.592;2023-05-10T06:07:03;16.42;51.63
67249;SHT31;63247;54.300;18.592;2023-05-10T06:09:28;17.49;49.72
67249;SHT31;63247;54.300;18.592;2023-05-10T06:11:54;17.51;50.90
67249;SHT31;63247;54.300;18.592;2023-05-10T06:14:22;18.29;50.17
67249;SHT31;63247;54.300;18.592;2023-05-10T06:16:48;16.59;52.20
67249;SHT31;63247;54.300;18.592;2023-05-10T06:19:13;17.55;50.75
67249;SHT31;63247;54.300;18.592;2023-05-10T06:21:38;17.24;50.63
67249;SHT31;63247;54.300;18.592;2023-05-10T06:24:05;17.89;51.24
67249;SHT31;63247;54.300;18.592;2023-05-10T06:26:32;18.64;49.41
67249;SHT31;63247;54.300;18.592;2023-05-10T06:28:57;18.09;49.51
67249;SHT31;63247;54.300;18.592;2023-05-10T06:31:22;19.24;48.74
67249;SHT31;63247;54.300;18.592;2023-05-10T06:33:48;19.13;47.23
67249;SHT31;63247;54.300;18.592;2023-05-10T06:36:13;18.31;48.70
67249;SHT31;63247;54.300;18.592;2023-05-10T06:38:39;18.95;48.62
67249;SHT31;63247;54.300;18.592;2023-05-10T06:41:04;19.77;47.33
67249;SHT31;63247;54.300;18.592;2023-05-10T06:43:30;19.41;47.55
67249;SHT31;63247;54.300;18.592;2023-05-10T06:45:56;18.85;47.53
67249;SHT31;63247;54.300;18.592;2023-05-10T06:48:21;20.57;45.95
67249;SHT31;63247;54.300;18.592;2023-05-10T06:50:46;19.02;47.10
67249;SHT31;63247;54.300;18.592;2023-05-10T06:53:12;17.76;49.62
67249;SHT31;63247;54.300;18.592;2023-05-10T06:55:38;17.85;49.18
67249;SHT31;63247;54.300;18.592;2023-05-10T06:58:04;18.94;48.05
67249;SHT31;63247;54.300;18.592;2023-05-10T07:00:29;19.43;46.90
67249;SHT31;63247;54.300;18.592;2023-05-10T07:02:55;18.91;47.45
67249;SHT31;63247;54.300;18.592;2023-05-10T07:05:21;18.98;46.37
67249;SHT31;63247;54.300;18.592;2023-05-10T07:07:46;19.75;45.36
67249;SHT31;63247;54.300;18.592;2023-05-10T07:10:12;19.53;45.97
67249;SHT31;63247;54.300;18.592;2023-05-10T07:12:37;18.99;46.95
67249;SHT31;63247;54.300;18.592;2023-05-10T07:15:04;20.18;44.69
67249;SHT31;63247;54.300;18.592;2023-05-10T07:17:29;18.44;46.23
67249;SHT31;63247;54.300;18.592;2023-05-10T07:19:54;19.47;45.45
67249;SHT31;63247;54.300;18.592;2023-05-10T07:22:20;19.30;44.98
67249;SHT31;63247;54.300;18.592;2023-05-10T07:24:45;19.81;44.99
67249;SHT31;63247;54.300;18.592;2023-05-10T07:27:11;20.29;44.22
67249;SHT31;63247;54.300;18.592;2023-05-10T07:29:38;19.63;44.92
67249;SHT31;63247;54.300;18.592;2023-05-10T07:32:04;19.92;44.64
67249;SHT31;63247;54.300;18.592;2023-05-10T07:34:29;20.19;42.82
67249;SHT31;63247;54.300;18.592;2023-05-10T07:36:57;20.23;44.32
67249;SHT31;63247;54.300;18.592;2023-05-10T07:39:23;21.46;42.45
67249;SHT31;63247;54.300;18.592;2023-05-10T07:41:48;21.28;42.88
67249;SHT31;63247;54.300;18.592;2023-05-10T07:44:14;20.47;41.43
67249;SHT31;63247;54.300;18.592;2023-05-10T07:46:40;20.77;43.05
67249;SHT31;63247;54.300;18.592;2023-05-10T07:49:05;20.74;42.20
67249;SHT31;63247;54.300;18.592;2023-05-10T07:51:31;20.64;42.90
67249;SHT31;63247;54.300;18.592;2023-05-10T07:53:56;20.18;42.76
67249;SHT31;63247;54.300;18.592;2023-05-10T07:56:27;20.73;42.79
67249;SHT31;63247;54.300;18.592;2023-05-10T07:58:55;19.15;43.24
67249;SHT31;63247;54.300;18.592;2023-05-10T08:01:21;20.39;42.76
67249;SHT31;63247;54.300;18.592;2023-05-10T08:03:47;21.18;41.26
67249;SHT31;63247;54.300;18.592;2023-05-10T08:06:12;20.57;41.50
67249;SHT31;63247;54.300;18.592;2023-05-10T08:08:38;20.02;41.45
67249;SHT31;63247;54.300;18.592;2023-05-10T08:11:04;20.08;41.64
67249;SHT31;63247;54.300;18.592;2023-05-10T08:13:29;20.26;41.16
67249;SHT31;63247;54.300;18.592;2023-05-10T08:15:54;20.57;40.16
67249;SHT31;63247;54.300;18.592;2023-05-10T08:18:20;20.56;40.78
67249;SHT31;63247;54.300;18.592;2023-05-10T08:20:46;21.07;40.02
67249;SHT31;63247;54.300;18.592;2023-05-10T08:23:14;20.64;41.30
67249;SHT31;63247;54.300;18.592;2023-05-10T08:25:39;20.95;40.97
67249;SHT31;63247;54.300;18.592;2023-05-10T08:28:05;21.00;39.89
67249;SHT31;63247;54.300;18.592;2023-05-10T08:30:30;20.84;41.25
67249;SHT31;63247;54.300;18.592;2023-05-10T08:32:56;20.36;39.54
67249;SHT31;63247;54.300;18.592;2023-05-10T08:35:21;20.46;39.79
67249;SHT31;63247;54.300;18.592;2023-05-10T08:37:46;20.30;39.90
67249;SHT31;63247;54.300;18.592;2023-05-10T08:40:12;20.50;40.38
67249;SHT31;63247;54.300;18.592;2023-05-10T08:42:40;20.40;39.30
67249;SHT31;63247;54.300;18.592;2023-05-10T08:45:09;20.44;40.24
67249;SHT31;63247;54.300;18.592;2023-05-10T08:47:36;20.49;39.54
67249;SHT31;63247;54.300;18.592;2023-05-10T08:50:03;20.63;39.16
67249;SHT31;63247;54.300;18.592;2023-05-10T08:52:30;20.32;39.53
67249;SHT31;63247;54.300;18.592;2023-05-10T08:54:56;19.64;39.80
67249;SHT31;63247;54.300;18.592;2023-05-10T08:57:21;20.26;40.05
67249;SHT31;63247;54.300;18.592;2023-05-10T08:59:47;20.90;39.92
67249;SHT31;63247;54.300;18.592;2023-05-10T09:02:13;20.49;39.90
67249;SHT31;63247;54.300;18.592;2023-05-10T09:04:38;20.57;38.99
67249;SHT31;63247;54.300;18.592;2023-05-10T09:07:04;19.46;40.06
67249;SHT31;63247;54.300;18.592;2023-05-10T09:09:30;20.23;39.15
67249;SHT31;63247;54.300;18.592;2023-05-10T09:11:56;19.75;39.79
67249;SHT31;63247;54.300;18.592;2023-05-10T09:14:23;20.32;40.45
67249;SHT31;63247;54.300;18.592;2023-05-10T09:16:50;20.36;39.95
67249;SHT31;63247;54.300;18.592;2023-05-10T09:19:15;18.85;40.49
67249;SHT31;63247;54.300;18.592;2023-05-10T09:21:41;20.11;39.77
67249;SHT31;63247;54.300;18.592;2023-05-10T09:24:07;20.22;39.21
67249;SHT31;63247;54.300;18.592;2023-05-10T09:26:33;19.51;39.59
67249;SHT31;63247;54.300;18.592;2023-05-10T09:29:01;19.46;39.91
67249;SHT31;63247;54.300;18.592;2023-05-10T09:31:52;19.16;40.21
67249;SHT31;63247;54.300;18.592;2023-05-10T09:34:30;20.54;39.14
67249;SHT31;63247;54.300;18.592;2023-05-10T09:37:01;19.56;39.79
67249;SHT31;63247;54.300;18.592;2023-05-10T09:39:35;20.05;40.32
67249;SHT31;63247;54.300;18.592;2023-05-10T09:42:05;19.92;40.15
67249;SHT31;63247;54.300;18.592;2023-05-10T09:44:32;18.88;41.06
67249;SHT31;63247;54.300;18.592;2023-05-10T09:46:58;19.16;40.31
67249;SHT31;63247;54.300;18.592;2023-05-10T09:49:24;18.91;41.36
67249;SHT31;63247;54.300;18.592;2023-05-10T09:52:07;18.89;41.17
67249;SHT31;63247;54.300;18.592;2023-05-10T09:54:33;18.18;41.54
67249;SHT31;63247;54.300;18.592;2023-05-10T09:56:59;18.89;41.92
67249;SHT31;63247;54.300;18.592;2023-05-10T09:59:26;18.30;42.36
67249;SHT31;63247;54.300;18.592;2023-05-10T10:01:55;18.27;42.37
67249;SHT31;63247;54.300;18.592;2023-05-10T10:04:21;18.29;42.54
67249;SHT31;63247;54.300;18.592;2023-05-10T10:06:58;18.17;43.09
67249;SHT31;63247;54.300;18.592;2023-05-10T10:09:25;18.82;42.60
67249;SHT31;63247;54.300;18.592;2023-05-10T10:11:50;17.81;42.78
67249;SHT31;63247;54.300;18.592;2023-05-10T10:14:18;18.07;43.79
67249;SHT31;63247;54.300;18.592;2023-05-10T10:16:43;17.45;42.97
67249;SHT31;63247;54.300;18.592;2023-05-10T10:19:10;17.78;42.38
67249;SHT31;63247;54.300;18.592;2023-05-10T10:21:35;17.48;42.49
67249;SHT31;63247;54.300;18.592;2023-05-10T10:24:01;18.00;42.71
67249;SHT31;63247;54.300;18.592;2023-05-10T10:26:26;18.10;42.37
67249;SHT31;63247;54.300;18.592;2023-05-10T10:29:23;18.21;41.97
67249;SHT31;63247;54.300;18.592;2023-05-10T10:32:01;17.87;41.78
67249;SHT31;63247;54.300;18.592;2023-05-10T10:34:29;17.41;41.70
67249;SHT31;63247;54.300;18.592;2023-05-10T10:36:57;17.87;42.29
67249;SHT31;63247;54.300;18.592;2023-05-10T10:39:23;17.93;41.94
67249;SHT31;63247;54.300;18.592;2023-05-10T10:41:54;17.54;41.62
67249;SHT31;63247;54.300;18.592;2023-05-10T10:47:21;18.73;42.03
67249;SHT31;63247;54.300;18.592;2023-05-10T10:52:31;18.84;40.91
67249;SHT31;63247;54.300;18.592;2023-05-10T10:57:24;18.57;41.86
67249;SHT31;63247;54.300;18.592;2023-05-10T10:59:53;18.44;41.20
67249;SHT31;63247;54.300;18.592;2023-05-10T11:02:44;18.67;40.86
67249;SHT31;63247;54.300;18.592;2023-05-10T11:07:57;18.14;42.16
67249;SHT31;63247;54.300;18.592;2023-05-10T11:10:24;18.33;41.52
67249;SHT31;63247;54.300;18.592;2023-05-10T11:15:19;18.07;41.40
67249;SHT31;63247;54.300;18.592;2023-05-10T11:17:45;18.54;41.48
67249;SHT31;63247;54.300;18.592;2023-05-10T11:20:17;18.17;42.48
67249;SHT31;63247;54.300;18.592;2023-05-10T11:22:54;18.13;41.41
67249;SHT31;63247;54.300;18.592;2023-05-10T11:25:22;18.31;41.96
67249;SHT31;63247;54.300;18.592;2023-05-10T11:27:51;18.27;41.19
67249;SHT31;63247;54.300;18.592;2023-05-10T11:30:17;18.75;41.00
67249;SHT31;63247;54.300;18.592;2023-05-10T11:32:43;18.58;39.75
67249;SHT31;63247;54.300;18.592;2023-05-10T11:35:12;18.31;40.31
67249;SHT31;63247;54.300;18.592;2023-05-10T11:37:41;18.12;41.32
67249;SHT31;63247;54.300;18.592;2023-05-10T11:40:12;18.06;40.89
67249;SHT31;63247;54.300;18.592;2023-05-10T11:42:37;18.06;41.98
67249;SHT31;63247;54.300;18.592;2023-05-10T11:45:03;18.34;41.97
67249;SHT31;63247;54.300;18.592;2023-05-10T11:47:29;18.06;41.74
67249;SHT31;63247;54.300;18.592;2023-05-10T11:49:54;18.43;42.03
67249;SHT31;63247;54.300;18.592;2023-05-10T11:52:20;18.69;42.77
67249;SHT31;63247;54.300;18.592;2023-05-10T11:54:51;18.76;42.81
67249;SHT31;63247;54.300;18.592;2023-05-10T11:57:18;18.36;42.90
67249;SHT31;63247;54.300;18.592;2023-05-10T11:59:44;18.78;43.11
67249;SHT31;63247;54.300;18.592;2023-05-10T12:02:12;18.54;42.68
67249;SHT31;63247;54.300;18.592;2023-05-10T12:04:38;18.48;41.88
67249;SHT31;63247;54.300;18.592;2023-05-10T12:07:03;18.37;41.25
67249;SHT31;63247;54.300;18.592;2023-05-10T12:09:29;18.73;41.56
67249;SHT31;63247;54.300;18.592;2023-05-10T12:11:56;18.64;41.62
67249;SHT31;63247;54.300;18.592;2023-05-10T12:14:24;18.75;41.97
67249;SHT31;63247;54.300;18.592;2023-05-10T12:16:50;18.55;41.03
67249;SHT31;63247;54.300;18.592;2023-05-10T12:19:19;18.55;41.32
67249;SHT31;63247;54.300;18.592;2023-05-10T12:21:48;18.88;41.50
67249;SHT31;63247;54.300;18.592;2023-05-10T12:24:13;18.61;39.95
67249;SHT31;63247;54.300;18.592;2023-05-10T12:26:43;18.76;40.26
67249;SHT31;63247;54.300;18.592;2023-05-10T12:31:57;18.58;40.92
67249;SHT31;63247;54.300;18.592;2023-05-10T12:34:35;19.09;41.86
67249;SHT31;63247;54.300;18.592;2023-05-10T12:37:02;19.49;40.27
67249;SHT31;63247;54.300;18.592;2023-05-10T12:39:42;19.10;39.83
67249;SHT31;63247;54.300;18.592;2023-05-10T12:42:07;18.62;39.80
67249;SHT31;63247;54.300;18.592;2023-05-10T12:44:33;18.73;40.73
67249;SHT31;63247;54.300;18.592;2023-05-10T12:46:58;18.82;41.14
67249;SHT31;63247;54.300;18.592;2023-05-10T12:49:24;18.94;40.89
67249;SHT31;63247;54.300;18.592;2023-05-10T12:51:49;18.68;40.73
67249;SHT31;63247;54.300;18.592;2023-05-10T12:54:15;18.87;41.16
67249;SHT31;63247;54.300;18.592;2023-05-10T12:56:40;18.88;41.49
67249;SHT31;63247;54.300;18.592;2023-05-10T12:59:07;18.88;40.04
67249;SHT31;63247;54.300;18.592;2023-05-10T13:01:33;18.78;39.84
67249;SHT31;63247;54.300;18.592;2023-05-10T13:03:58;19.19;40.06
67249;SHT31;63247;54.300;18.592;2023-05-10T13:06:25;19.36;40.34
67249;SHT31;63247;54.300;18.592;2023-05-10T13:08:50;19.45;41.18
67249;SHT31;63247;54.300;18.592;2023-05-10T13:11:17;18.73;40.46
67249;SHT31;63247;54.300;18.592;2023-05-10T13:13:44;18.82;41.17
67249;SHT31;63247;54.300;18.592;2023-05-10T13:16:10;18.68;41.12
67249;SHT31;63247;54.300;18.592;2023-05-10T13:18:35;19.08;41.16
67249;SHT31;63247;54.300;18.592;2023-05-10T13:21:01;19.06;40.89
67249;SHT31;63247;54.300;18.592;2023-05-10T13:23:28;18.91;39.96
67249;SHT31;63247;54.300;18.592;2023-05-10T13:25:54;19.24;41.09
67249;SHT31;63247;54.300;18.592;2023-05-10T13:28:19;19.75;41.58
67249;SHT31;63247;54.300;18.592;2023-05-10T13:30:45;19.31;40.47
67249;SHT31;63247;54.300;18.592;2023-05-10T13:33:10;18.91;40.45
67249;SHT31;63247;54.300;18.592;2023-05-10T13:35:36;18.98;41.47
67249;SHT31;63247;54.300;18.592;2023-05-10T13:38:01;19.02;42.12
67249;SHT31;63247;54.300;18.592;2023-05-10T13:40:27;19.45;42.11
67249;SHT31;63247;54.300;18.592;2023-05-10T13:42:53;19.03;41.83
67249;SHT31;63247;54.300;18.592;2023-05-10T13:45:18;19.05;41.86
67249;SHT31;63247;54.300;18.592;2023-05-10T13:47:44;19.26;42.23
67249;SHT31;63247;54.300;18.592;2023-05-10T13:50:09;19.10;41.34
67249;SHT31;63247;54.300;18.592;2023-05-10T13:52:35;19.05;41.33
67249;SHT31;63247;54.300;18.592;2023-05-10T13:55:00;19.20;41.32
67249;SHT31;63247;54.300;18.592;2023-05-10T13:57:26;18.92;41.15
67249;SHT31;63247;54.300;18.592;2023-05-10T13:59:51;18.91;41.60
67249;SHT31;63247;54.300;18.592;2023-05-10T14:02:17;18.92;41.61
67249;SHT31;63247;54.300;18.592;2023-05-10T14:04:42;18.91;42.02
67249;SHT31;63247;54.300;18.592;2023-05-10T14:07:08;18.84;40.93
67249;SHT31;63247;54.300;18.592;2023-05-10T14:09:33;18.88;41.44
67249;SHT31;63247;54.300;18.592;2023-05-10T14:11:59;19.06;41.43
67249;SHT31;63247;54.300;18.592;2023-05-10T14:14:24;18.98;41.17
67249;SHT31;63247;54.300;18.592;2023-05-10T14:16:50;19.03;40.99
67249;SHT31;63247;54.300;18.592;2023-05-10T14:19:15;19.00;41.17
67249;SHT31;63247;54.300;18.592;2023-05-10T14:21:41;18.76;40.40
67249;SHT31;63247;54.300;18.592;2023-05-10T14:24:06;18.68;40.23
67249;SHT31;63247;54.300;18.592;2023-05-10T14:26:32;18.96;40.77
67249;SHT31;63247;54.300;18.592;2023-05-10T14:28:59;19.03;40.29
67249;SHT31;63247;54.300;18.592;2023-05-10T14:31:24;18.78;39.82
67249;SHT31;63247;54.300;18.592;2023-05-10T14:33:50;18.95;41.05
67249;SHT31;63247;54.300;18.592;2023-05-10T14:36:17;18.82;40.61
67249;SHT31;63247;54.300;18.592;2023-05-10T14:38:43;18.96;40.29
67249;SHT31;63247;54.300;18.592;2023-05-10T14:41:08;18.79;40.68
67249;SHT31;63247;54.300;18.592;2023-05-10T14:43:34;18.78;40.96
67249;SHT31;63247;54.300;18.592;2023-05-10T14:45:59;18.71;40.49
67249;SHT31;63247;54.300;18.592;2023-05-10T14:48:25;18.60;40.54
67249;SHT31;63247;54.300;18.592;2023-05-10T14:50:50;18.92;41.09
67249;SHT31;63247;54.300;18.592;2023-05-10T14:53:18;19.00;41.27
67249;SHT31;63247;54.300;18.592;2023-05-10T14:55:44;19.17;41.75
67249;SHT31;63247;54.300;18.592;2023-05-10T14:58:09;18.91;41.29
67249;SHT31;63247;54.300;18.592;2023-05-10T15:00:35;18.82;40.88
67249;SHT31;63247;54.300;18.592;2023-05-10T15:03:01;18.88;41.11
67249;SHT31;63247;54.300;18.592;2023-05-10T15:05:26;18.82;41.70
67249;SHT31;63247;54.300;18.592;2023-05-10T15:07:52;18.75;41.69
67249;SHT31;63247;54.300;18.592;2023-05-10T15:10:17;18.69;41.01
67249;SHT31;63247;54.300;18.592;2023-05-10T15:12:43;18.50;40.88
67249;SHT31;63247;54.300;18.592;2023-05-10T15:15:08;18.64;41.38
67249;SHT31;63247;54.300;18.592;2023-05-10T15:17:34;18.72;41.70
67249;SHT31;63247;54.300;18.592;2023-05-10T15:20:00;18.72;41.69
67249;SHT31;63247;54.300;18.592;2023-05-10T15:22:27;18.61;41.68
67249;SHT31;63247;54.300;18.592;2023-05-10T15:24:54;18.67;42.05
67249;SHT31;63247;54.300;18.592;2023-05-10T15:27:20;18.79;42.02
67249;SHT31;63247;54.300;18.592;2023-05-10T15:29:45;18.71;41.69
67249;SHT31;63247;54.300;18.592;2023-05-10T15:32:11;18.52;41.53
67249;SHT31;63247;54.300;18.592;2023-05-10T15:34:37;18.60;42.16
67249;SHT31;63247;54.300;18.592;2023-05-10T15:37:03;18.54;41.47
67249;SHT31;63247;54.300;18.592;2023-05-10T15:39:28;18.60;42.20
67249;SHT31;63247;54.300;18.592;2023-05-10T15:41:54;18.61;41.99
67249;SHT31;63247;54.300;18.592;2023-05-10T15:44:20;18.43;41.66
67249;SHT31;63247;54.300;18.592;2023-05-10T15:46:45;18.45;41.75
67249;SHT31;63247;54.300;18.592;2023-05-10T15:49:10;18.60;42.20
67249;SHT31;63247;54.300;18.592;2023-05-10T15:51:36;18.62;42.62
67249;SHT31;63247;54.300;18.592;2023-05-10T15:54:01;18.44;41.86
67249;SHT31;63247;54.300;18.592;2023-05-10T15:56:30;18.37;41.84
67249;SHT31;63247;54.300;18.592;2023-05-10T15:58:56;18.34;41.72
67249;SHT31;63247;54.300;18.592;2023-05-10T16:01:22;18.30;42.06